sensor_id;sensor_type;location;lat;lon;timestamp;pressure;altitude;pressure_sealevel;temperature;humidity
42297;BME280;72430;47.456;19.016;2024-01-27T00:00:18;100771.72;;;8.02;80.79
42297;BME280;72430;47.456;19.016;2024-01-27T00:03:20;100788.56;;;7.91;80.50
42297;BME280;72430;47.456;19.016;2024-01-27T00:06:22;100781.84;;;7.86;80.37
42297;BME280;72430;47.456;19.016;2024-01-27T00:09:24;100779.16;;;7.73;80.83
42297;BME280;72430;47.456;19.016;2024-01-27T00:12:26;100781.84;;;7.73;79.42
42297;BME280;72430;47.456;19.016;2024-01-27T00:15:28;100789.47;;;7.66;79.32
42297;BME280;72430;47.456;19.016;2024-01-27T00:18:30;100829.22;;;7.59;79.21
42297;BME280;72430;47.456;19.016;2024-01-27T00:21:32;100821.94;;;7.48;79.32
42297;BME280;72430;47.456;19.016;2024-01-27T00:24:34;100843.50;;;7.60;77.79
42297;BME280;72430;47.456;19.016;2024-01-27T00:27:36;100851.97;;;7.79;76.62
42297;BME280;72430;47.456;19.016;2024-01-27T00:30:38;100857.97;;;7.83;76.50
42297;BME280;72430;47.456;19.016;2024-01-27T00:33:40;100851.84;;;7.68;75.89
42297;BME280;72430;47.456;19.016;2024-01-27T00:36:42;100864.19;;;7.71;74.20
42297;BME280;72430;47.456;19.016;2024-01-27T00:39:49;100878.97;;;7.63;73.33
42297;BME280;72430;47.456;19.016;2024-01-27T00:42:51;100870.41;;;7.84;70.38
42297;BME280;72430;47.456;19.016;2024-01-27T00:45:53;100869.53;;;7.71;70.61
42297;BME280;72430;47.456;19.016;2024-01-27T00:48:55;100855.69;;;7.64;70.38
42297;BME280;72430;47.456;19.016;2024-01-27T00:51:57;100856.88;;;7.73;69.39
42297;BME280;72430;47.456;19.016;2024-01-27T00:54:59;100875.97;;;7.68;68.87
42297;BME280;72430;47.456;19.016;2024-01-27T00:58:01;100887.63;;;7.54;69.04
42297;BME280;72430;47.456;19.016;2024-01-27T01:01:03;100893.44;;;7.61;69.23
42297;BME280;72430;47.456;19.016;2024-01-27T01:04:06;100902.44;;;7.60;68.13
42297;BME280;72430;47.456;19.016;2024-01-27T01:07:09;100889.03;;;7.47;69.20
42297;BME280;72430;47.456;19.016;2024-01-27T01:10:11;100914.09;;;7.46;69.31
42297;BME280;72430;47.456;19.016;2024-01-27T01:13:12;100917.84;;;7.56;68.84
42297;BME280;72430;47.456;19.016;2024-01-27T01:16:14;100887.31;;;7.46;68.65
42297;BME280;72430;47.456;19.016;2024-01-27T01:19:18;100925.34;;;7.38;68.98
42297;BME280;72430;47.456;19.016;2024-01-27T01:22:22;100934.44;;;7.35;68.87
42297;BME280;72430;47.456;19.016;2024-01-27T01:25:24;100909.78;;;7.30;68.51
42297;BME280;72430;47.456;19.016;2024-01-27T01:28:25;100923.81;;;7.34;67.49
42297;BME280;72430;47.456;19.016;2024-01-27T01:31:28;100919.88;;;7.39;67.78
42297;BME280;72430;47.456;19.016;2024-01-27T01:34:29;100918.69;;;7.44;67.45
42297;BME280;72430;47.456;19.016;2024-01-27T01:37:32;100916.47;;;7.50;67.24
42297;BME280;72430;47.456;19.016;2024-01-27T01:40:33;100937.09;;;7.35;67.69
42297;BME280;72430;47.456;19.016;2024-01-27T01:43:35;100968.50;;;7.33;67.63
42297;BME280;72430;47.456;19.016;2024-01-27T01:46:37;100938.16;;;7.33;67.32
42297;BME280;72430;47.456;19.016;2024-01-27T01:49:40;100958.38;;;7.24;67.26
42297;BME280;72430;47.456;19.016;2024-01-27T01:52:42;100962.28;;;7.33;66.54
42297;BME280;72430;47.456;19.016;2024-01-27T01:55:44;100956.53;;;7.11;67.00
42297;BME280;72430;47.456;19.016;2024-01-27T01:58:48;100947.53;;;7.12;66.14
42297;BME280;72430;47.456;19.016;2024-01-27T02:01:50;100956.53;;;7.11;65.96
42297;BME280;72430;47.456;19.016;2024-01-27T02:04:52;100955.22;;;7.04;65.97
42297;BME280;72430;47.456;19.016;2024-01-27T02:07:53;100950.16;;;7.27;64.39
42297;BME280;72430;47.456;19.016;2024-01-27T02:10:58;100963.34;;;7.30;63.61
42297;BME280;72430;47.456;19.016;2024-01-27T02:14:00;100944.13;;;7.23;63.32
42297;BME280;72430;47.456;19.016;2024-01-27T02:17:02;100934.03;;;7.14;63.27
42297;BME280;72430;47.456;19.016;2024-01-27T02:20:05;100953.13;;;6.95;62.89
42297;BME280;72430;47.456;19.016;2024-01-27T02:23:08;100959.50;;;7.07;62.40
42297;BME280;72430;47.456;19.016;2024-01-27T02:26:10;100963.63;;;6.98;62.18
42297;BME280;72430;47.456;19.016;2024-01-27T02:29:12;100975.00;;;7.02;61.97
42297;BME280;72430;47.456;19.016;2024-01-27T02:32:14;100976.84;;;6.87;62.72
42297;BME280;72430;47.456;19.016;2024-01-27T02:35:16;100995.41;;;6.75;62.29
42297;BME280;72430;47.456;19.016;2024-01-27T02:38:18;101019.69;;;6.87;61.53
42297;BME280;72430;47.456;19.016;2024-01-27T02:41:21;101021.69;;;6.83;61.34
42297;BME280;72430;47.456;19.016;2024-01-27T02:44:22;101029.25;;;6.76;60.94
42297;BME280;72430;47.456;19.016;2024-01-27T02:47:24;101037.25;;;6.62;60.81
42297;BME280;72430;47.456;19.016;2024-01-27T02:50:26;101060.09;;;6.53;61.70
42297;BME280;72430;47.456;19.016;2024-01-27T02:53:28;101056.38;;;6.70;60.66
42297;BME280;72430;47.456;19.016;2024-01-27T02:56:30;101059.63;;;6.61;61.73
42297;BME280;72430;47.456;19.016;2024-01-27T02:59:32;101079.34;;;6.74;59.92
42297;BME280;72430;47.456;19.016;2024-01-27T03:02:34;101080.81;;;6.49;61.11
42297;BME280;72430;47.456;19.016;2024-01-27T03:05:36;101100.34;;;6.66;60.80
42297;BME280;72430;47.456;19.016;2024-01-27T03:08:37;101111.22;;;6.63;60.10
42297;BME280;72430;47.456;19.016;2024-01-27T03:11:39;101102.03;;;6.52;59.73
42297;BME280;72430;47.456;19.016;2024-01-27T03:14:42;101119.41;;;6.45;60.72
42297;BME280;72430;47.456;19.016;2024-01-27T03:17:44;101137.34;;;6.43;60.85
42297;BME280;72430;47.456;19.016;2024-01-27T03:20:46;101143.13;;;6.51;60.02
42297;BME280;72430;47.456;19.016;2024-01-27T03:23:48;101131.41;;;6.38;61.21
42297;BME280;72430;47.456;19.016;2024-01-27T03:26:49;101147.22;;;6.42;60.80
42297;BME280;72430;47.456;19.016;2024-01-27T03:29:51;101154.19;;;6.45;60.54
42297;BME280;72430;47.456;19.016;2024-01-27T03:32:53;101166.00;;;6.41;60.20
42297;BME280;72430;47.456;19.016;2024-01-27T03:35:55;101170.09;;;6.32;60.32
42297;BME280;72430;47.456;19.016;2024-01-27T03:38:59;101174.44;;;6.49;60.09
42297;BME280;72430;47.456;19.016;2024-01-27T03:42:01;101178.63;;;6.39;60.81
42297;BME280;72430;47.456;19.016;2024-01-27T03:45:04;101179.03;;;6.47;60.89
42297;BME280;72430;47.456;19.016;2024-01-27T03:48:06;101182.66;;;6.46;61.33
42297;BME280;72430;47.456;19.016;2024-01-27T03:51:08;101181.69;;;6.47;61.21
42297;BME280;72430;47.456;19.016;2024-01-27T03:54:10;101179.91;;;6.48;61.76
42297;BME280;72430;47.456;19.016;2024-01-27T03:57:12;101176.19;;;6.34;62.36
42297;BME280;72430;47.456;19.016;2024-01-27T04:00:14;101184.91;;;6.38;62.78
42297;BME280;72430;47.456;19.016;2024-01-27T04:03:16;101193.16;;;6.18;62.86
42297;BME280;72430;47.456;19.016;2024-01-27T04:06:19;101205.53;;;6.36;62.73
42297;BME280;72430;47.456;19.016;2024-01-27T04:09:21;101226.78;;;6.39;62.50
42297;BME280;72430;47.456;19.016;2024-01-27T04:12:22;101208.91;;;6.39;63.09
42297;BME280;72430;47.456;19.016;2024-01-27T04:15:24;101222.19;;;6.41;62.82
42297;BME280;72430;47.456;19.016;2024-01-27T04:18:26;101225.63;;;6.43;62.90
42297;BME280;72430;47.456;19.016;2024-01-27T04:21:28;101224.66;;;6.44;62.79
42297;BME280;72430;47.456;19.016;2024-01-27T04:24:30;101222.09;;;6.26;62.99
42297;BME280;72430;47.456;19.016;2024-01-27T04:27:37;101229.44;;;6.39;63.28
42297;BME280;72430;47.456;19.016;2024-01-27T04:30:40;101251.75;;;6.38;63.70
42297;BME280;72430;47.456;19.016;2024-01-27T04:33:42;101252.03;;;6.33;63.38
42297;BME280;72430;47.456;19.016;2024-01-27T04:36:44;101255.72;;;6.47;63.24
42297;BME280;72430;47.456;19.016;2024-01-27T04:39:46;101264.78;;;6.44;62.95
42297;BME280;72430;47.456;19.016;2024-01-27T04:42:48;101266.09;;;6.37;63.07
42297;BME280;72430;47.456;19.016;2024-01-27T04:45:49;101257.63;;;6.44;63.07
42297;BME280;72430;47.456;19.016;2024-01-27T04:48:52;101269.56;;;6.39;61.86
42297;BME280;72430;47.456;19.016;2024-01-27T04:51:54;101276.78;;;6.37;62.05
42297;BME280;72430;47.456;19.016;2024-01-27T04:54:55;101281.41;;;6.18;61.16
42297;BME280;72430;47.456;19.016;2024-01-27T04:57:57;101282.56;;;5.97;61.90
42297;BME280;72430;47.456;19.016;2024-01-27T05:01:01;101297.59;;;6.15;60.68
42297;BME280;72430;47.456;19.016;2024-01-27T05:04:03;101304.50;;;6.03;61.03
42297;BME280;72430;47.456;19.016;2024-01-27T05:07:05;101302.63;;;5.88;60.98
42297;BME280;72430;47.456;19.016;2024-01-27T05:10:10;101291.38;;;5.65;62.49
42297;BME280;72430;47.456;19.016;2024-01-27T05:13:12;101303.44;;;5.72;62.16
42297;BME280;72430;47.456;19.016;2024-01-27T05:16:14;101300.00;;;5.70;61.91
42297;BME280;72430;47.456;19.016;2024-01-27T05:19:15;101287.75;;;5.66;60.73
42297;BME280;72430;47.456;19.016;2024-01-27T05:22:19;101297.75;;;5.62;59.41
42297;BME280;72430;47.456;19.016;2024-01-27T05:25:21;101297.53;;;5.49;58.69
42297;BME280;72430;47.456;19.016;2024-01-27T05:28:23;101321.41;;;5.53;58.35
42297;BME280;72430;47.456;19.016;2024-01-27T05:31:25;101311.97;;;5.29;58.94
42297;BME280;72430;47.456;19.016;2024-01-27T05:34:28;101306.59;;;5.47;58.33
42297;BME280;72430;47.456;19.016;2024-01-27T05:37:30;101318.41;;;5.59;57.63
42297;BME280;72430;47.456;19.016;2024-01-27T05:40:32;101319.53;;;5.55;56.26
42297;BME280;72430;47.456;19.016;2024-01-27T05:43:34;101306.34;;;5.51;56.86
42297;BME280;72430;47.456;19.016;2024-01-27T05:46:35;101324.34;;;5.48;56.02
42297;BME280;72430;47.456;19.016;2024-01-27T05:49:37;101337.53;;;5.51;54.63
42297;BME280;72430;47.456;19.016;2024-01-27T05:52:39;101320.97;;;5.44;54.02
42297;BME280;72430;47.456;19.016;2024-01-27T05:55:41;101336.75;;;5.49;54.20
42297;BME280;72430;47.456;19.016;2024-01-27T05:58:43;101344.13;;;5.44;54.34
42297;BME280;72430;47.456;19.016;2024-01-27T06:01:45;101343.41;;;5.58;52.62
42297;BME280;72430;47.456;19.016;2024-01-27T06:04:47;101329.50;;;5.51;53.98
42297;BME280;72430;47.456;19.016;2024-01-27T06:07:49;101337.59;;;5.49;53.72
42297;BME280;72430;47.456;19.016;2024-01-27T06:10:53;101352.84;;;5.47;54.43
42297;BME280;72430;47.456;19.016;2024-01-27T06:13:55;101359.84;;;5.50;53.70
42297;BME280;72430;47.456;19.016;2024-01-27T06:16:57;101396.34;;;5.49;53.69
42297;BME280;72430;47.456;19.016;2024-01-27T06:19:58;101388.06;;;5.56;54.15
42297;BME280;72430;47.456;19.016;2024-01-27T06:23:01;101382.78;;;5.54;54.61
42297;BME280;72430;47.456;19.016;2024-01-27T06:26:09;101385.06;;;5.44;56.63
42297;BME280;72430;47.456;19.016;2024-01-27T06:29:11;101383.09;;;5.66;56.11
42297;BME280;72430;47.456;19.016;2024-01-27T06:32:13;101396.22;;;5.53;57.18
42297;BME280;72430;47.456;19.016;2024-01-27T06:35:14;101392.53;;;5.55;56.95
42297;BME280;72430;47.456;19.016;2024-01-27T06:38:16;101385.34;;;5.73;56.01
42297;BME280;72430;47.456;19.016;2024-01-27T06:41:18;101405.47;;;5.63;55.62
42297;BME280;72430;47.456;19.016;2024-01-27T06:44:20;101398.31;;;5.63;55.45
42297;BME280;72430;47.456;19.016;2024-01-27T06:47:22;101403.84;;;5.60;54.00
42297;BME280;72430;47.456;19.016;2024-01-27T06:50:24;101411.84;;;5.60;54.55
42297;BME280;72430;47.456;19.016;2024-01-27T06:53:26;101434.69;;;5.66;54.08
42297;BME280;72430;47.456;19.016;2024-01-27T06:56:27;101423.53;;;5.75;53.72
42297;BME280;72430;47.456;19.016;2024-01-27T06:59:31;101422.91;;;5.70;53.26
42297;BME280;72430;47.456;19.016;2024-01-27T07:02:33;101418.75;;;5.82;53.36
42297;BME280;72430;47.456;19.016;2024-01-27T07:05:35;101419.59;;;5.83;54.07
42297;BME280;72430;47.456;19.016;2024-01-27T07:08:42;101433.03;;;5.81;53.74
42297;BME280;72430;47.456;19.016;2024-01-27T07:11:44;101433.03;;;5.81;54.01
42297;BME280;72430;47.456;19.016;2024-01-27T07:14:46;101432.31;;;5.95;53.73
42297;BME280;72430;47.456;19.016;2024-01-27T07:17:48;101424.78;;;5.86;53.99
42297;BME280;72430;47.456;19.016;2024-01-27T07:20:50;101422.34;;;5.81;55.75
42297;BME280;72430;47.456;19.016;2024-01-27T07:23:52;101434.19;;;5.93;54.78
42297;BME280;72430;47.456;19.016;2024-01-27T07:26:55;101426.81;;;5.98;55.11
42297;BME280;72430;47.456;19.016;2024-01-27T07:29:57;101443.63;;;6.00;55.45
42297;BME280;72430;47.456;19.016;2024-01-27T07:32:59;101442.22;;;6.11;55.88
42297;BME280;72430;47.456;19.016;2024-01-27T07:36:01;101444.97;;;6.09;56.57
42297;BME280;72430;47.456;19.016;2024-01-27T07:39:04;101452.25;;;6.23;55.56
42297;BME280;72430;47.456;19.016;2024-01-27T07:42:06;101444.59;;;6.33;55.89
42297;BME280;72430;47.456;19.016;2024-01-27T07:45:08;101443.13;;;6.27;56.96
42297;BME280;72430;47.456;19.016;2024-01-27T07:48:10;101454.13;;;6.39;56.53
42297;BME280;72430;47.456;19.016;2024-01-27T07:51:12;101451.25;;;6.42;55.43
42297;BME280;72430;47.456;19.016;2024-01-27T07:54:14;101460.84;;;6.62;55.65
42297;BME280;72430;47.456;19.016;2024-01-27T07:57:16;101455.69;;;6.59;55.73
42297;BME280;72430;47.456;19.016;2024-01-27T08:00:18;101469.50;;;6.67;56.28
42297;BME280;72430;47.456;19.016;2024-01-27T08:03:20;101467.78;;;6.66;55.84
42297;BME280;72430;47.456;19.016;2024-01-27T08:06:28;101468.03;;;6.78;56.41
42297;BME280;72430;47.456;19.016;2024-01-27T08:09:31;101464.00;;;6.87;55.02
42297;BME280;72430;47.456;19.016;2024-01-27T08:12:33;101462.50;;;6.97;54.63
42297;BME280;72430;47.456;19.016;2024-01-27T08:15:35;101476.22;;;7.23;55.79
42297;BME280;72430;47.456;19.016;2024-01-27T08:18:38;101478.28;;;7.34;55.38
42297;BME280;72430;47.456;19.016;2024-01-27T08:21:40;101474.13;;;7.44;54.65
42297;BME280;72430;47.456;19.016;2024-01-27T08:24:42;101487.03;;;7.21;54.21
42297;BME280;72430;47.456;19.016;2024-01-27T08:27:44;101491.97;;;7.60;54.22
42297;BME280;72430;47.456;19.016;2024-01-27T08:30:46;101503.22;;;7.50;53.11
42297;BME280;72430;47.456;19.016;2024-01-27T08:33:48;101503.09;;;7.68;53.85
42297;BME280;72430;47.456;19.016;2024-01-27T08:36:50;101505.47;;;8.03;52.36
42297;BME280;72430;47.456;19.016;2024-01-27T08:39:52;101511.00;;;8.45;53.08
42297;BME280;72430;47.456;19.016;2024-01-27T08:42:54;101517.25;;;8.61;51.72
42297;BME280;72430;47.456;19.016;2024-01-27T08:45:55;101530.22;;;9.10;51.09
42297;BME280;72430;47.456;19.016;2024-01-27T08:48:58;101514.06;;;9.52;49.61
42297;BME280;72430;47.456;19.016;2024-01-27T08:52:00;101519.50;;;9.78;49.02
42297;BME280;72430;47.456;19.016;2024-01-27T08:55:02;101529.88;;;9.98;48.54
42297;BME280;72430;47.456;19.016;2024-01-27T08:58:04;101516.22;;;10.40;46.67
42297;BME280;72430;47.456;19.016;2024-01-27T09:01:06;101523.16;;;10.57;45.33
42297;BME280;72430;47.456;19.016;2024-01-27T09:04:10;101521.28;;;10.31;46.83
42297;BME280;72430;47.456;19.016;2024-01-27T09:07:12;101509.31;;;10.87;46.57
42297;BME280;72430;47.456;19.016;2024-01-27T09:10:14;101510.03;;;11.03;44.46
42297;BME280;72430;47.456;19.016;2024-01-27T09:13:17;101514.50;;;11.39;44.81
42297;BME280;72430;47.456;19.016;2024-01-27T09:16:19;101497.81;;;11.34;43.76
42297;BME280;72430;47.456;19.016;2024-01-27T09:19:23;101512.63;;;12.25;44.01
42297;BME280;72430;47.456;19.016;2024-01-27T09:22:25;101506.09;;;11.80;43.00
42297;BME280;72430;47.456;19.016;2024-01-27T09:25:27;101509.94;;;12.36;42.26
42297;BME280;72430;47.456;19.016;2024-01-27T09:28:29;101498.03;;;13.73;40.81
42297;BME280;72430;47.456;19.016;2024-01-27T09:31:31;101508.19;;;14.23;39.41
42297;BME280;72430;47.456;19.016;2024-01-27T09:34:35;101501.03;;;14.43;38.43
42297;BME280;72430;47.456;19.016;2024-01-27T09:37:37;101503.19;;;13.76;37.34
42297;BME280;72430;47.456;19.016;2024-01-27T09:40:39;101506.25;;;14.97;38.79
42297;BME280;72430;47.456;19.016;2024-01-27T09:43:45;101497.94;;;14.79;37.28
42297;BME280;72430;47.456;19.016;2024-01-27T09:46:47;101499.09;;;14.96;36.47
42297;BME280;72430;47.456;19.016;2024-01-27T09:49:50;101496.53;;;14.95;36.65
42297;BME280;72430;47.456;19.016;2024-01-27T09:52:53;101524.28;;;15.08;36.09
42297;BME280;72430;47.456;19.016;2024-01-27T09:55:58;101510.97;;;14.95;35.74
42297;BME280;72430;47.456;19.016;2024-01-27T09:59:01;101508.47;;;14.20;36.30
42297;BME280;72430;47.456;19.016;2024-01-27T10:02:03;101520.44;;;14.48;34.60
42297;BME280;72430;47.456;19.016;2024-01-27T10:05:09;101531.94;;;15.93;34.97
42297;BME280;72430;47.456;19.016;2024-01-27T10:08:11;101534.91;;;14.59;33.83
42297;BME280;72430;47.456;19.016;2024-01-27T10:11:13;101522.34;;;14.58;35.61
42297;BME280;72430;47.456;19.016;2024-01-27T10:14:16;101503.16;;;15.12;34.61
42297;BME280;72430;47.456;19.016;2024-01-27T10:17:22;101493.06;;;15.93;32.95
42297;BME280;72430;47.456;19.016;2024-01-27T10:20:28;101503.16;;;15.91;33.93
42297;BME280;72430;47.456;19.016;2024-01-27T10:23:30;101511.44;;;15.89;33.36
42297;BME280;72430;47.456;19.016;2024-01-27T10:26:32;101490.00;;;14.66;33.85
42297;BME280;72430;47.456;19.016;2024-01-27T10:29:35;101482.06;;;17.63;32.85
42297;BME280;72430;47.456;19.016;2024-01-27T10:32:37;101490.22;;;17.63;31.04
42297;BME280;72430;47.456;19.016;2024-01-27T10:35:40;101483.91;;;17.80;29.37
42297;BME280;72430;47.456;19.016;2024-01-27T10:38:42;101500.34;;;18.15;30.20
42297;BME280;72430;47.456;19.016;2024-01-27T10:41:48;101491.13;;;18.77;28.18
42297;BME280;72430;47.456;19.016;2024-01-27T10:44:52;101497.66;;;17.97;27.58
42297;BME280;72430;47.456;19.016;2024-01-27T10:47:56;101509.06;;;18.80;28.10
42297;BME280;72430;47.456;19.016;2024-01-27T10:51:09;101508.19;;;19.31;26.77
42297;BME280;72430;47.456;19.016;2024-01-27T10:54:18;101521.56;;;19.76;26.63
42297;BME280;72430;47.456;19.016;2024-01-27T10:57:24;101518.50;;;20.12;26.89
42297;BME280;72430;47.456;19.016;2024-01-27T11:00:29;101508.41;;;20.77;25.50
42297;BME280;72430;47.456;19.016;2024-01-27T11:03:38;101511.47;;;19.93;25.85
42297;BME280;72430;47.456;19.016;2024-01-27T11:06:42;101501.00;;;20.46;27.06
42297;BME280;72430;47.456;19.016;2024-01-27T11:09:46;101499.41;;;20.60;23.79
42297;BME280;72430;47.456;19.016;2024-01-27T11:12:52;101500.22;;;19.79;26.20
42297;BME280;72430;47.456;19.016;2024-01-27T11:15:56;101500.38;;;19.78;26.45
42297;BME280;72430;47.456;19.016;2024-01-27T11:19:00;101492.53;;;20.16;25.95
42297;BME280;72430;47.456;19.016;2024-01-27T11:22:03;101508.06;;;19.66;24.58
42297;BME280;72430;47.456;19.016;2024-01-27T11:25:15;101485.81;;;18.68;25.57
42297;BME280;72430;47.456;19.016;2024-01-27T11:28:18;101496.28;;;19.57;26.57
42297;BME280;72430;47.456;19.016;2024-01-27T11:31:21;101463.25;;;18.57;25.54
42297;BME280;72430;47.456;19.016;2024-01-27T11:34:23;101476.38;;;18.54;25.76
42297;BME280;72430;47.456;19.016;2024-01-27T11:37:30;101481.75;;;18.10;25.70
42297;BME280;72430;47.456;19.016;2024-01-27T11:40:32;101459.69;;;18.22;25.98
42297;BME280;72430;47.456;19.016;2024-01-27T11:43:34;101448.81;;;19.66;24.71
42297;BME280;72430;47.456;19.016;2024-01-27T11:46:36;101461.25;;;19.94;24.66
42297;BME280;72430;47.456;19.016;2024-01-27T11:49:38;101461.28;;;19.61;24.37
42297;BME280;72430;47.456;19.016;2024-01-27T11:52:45;101485.00;;;16.87;26.35
42297;BME280;72430;47.456;19.016;2024-01-27T11:55:54;101505.03;;;15.80;27.17
42297;BME280;72430;47.456;19.016;2024-01-27T11:58:57;101511.56;;;14.68;28.25
42297;BME280;72430;47.456;19.016;2024-01-27T12:02:00;101509.13;;;14.12;30.27
42297;BME280;72430;47.456;19.016;2024-01-27T12:05:02;101516.66;;;13.87;31.00
42297;BME280;72430;47.456;19.016;2024-01-27T12:08:07;101533.72;;;13.11;32.58
42297;BME280;72430;47.456;19.016;2024-01-27T12:11:09;101540.16;;;12.41;33.06
42297;BME280;72430;47.456;19.016;2024-01-27T12:14:11;101536.72;;;12.62;32.89
42297;BME280;72430;47.456;19.016;2024-01-27T12:17:14;101553.56;;;11.82;34.42
42297;BME280;72430;47.456;19.016;2024-01-27T12:20:15;101561.66;;;11.58;35.14
42297;BME280;72430;47.456;19.016;2024-01-27T12:23:20;101544.00;;;11.30;35.11
42297;BME280;72430;47.456;19.016;2024-01-27T12:26:24;101559.53;;;10.76;36.36
42297;BME280;72430;47.456;19.016;2024-01-27T12:29:27;101558.59;;;10.51;37.44
42297;BME280;72430;47.456;19.016;2024-01-27T12:32:31;101523.53;;;12.12;34.79
42297;BME280;72430;47.456;19.016;2024-01-27T12:35:33;101534.25;;;12.47;34.93
42297;BME280;72430;47.456;19.016;2024-01-27T12:38:35;101510.38;;;12.07;34.55
42297;BME280;72430;47.456;19.016;2024-01-27T12:41:37;101515.44;;;11.51;34.24
42297;BME280;72430;47.456;19.016;2024-01-27T12:44:39;101518.63;;;11.08;35.60
42297;BME280;72430;47.456;19.016;2024-01-27T12:47:41;101518.84;;;10.67;36.51
42297;BME280;72430;47.456;19.016;2024-01-27T12:50:43;101515.69;;;10.21;37.71
42297;BME280;72430;47.456;19.016;2024-01-27T12:53:46;101516.78;;;9.65;38.17
42297;BME280;72430;47.456;19.016;2024-01-27T12:56:48;101524.16;;;9.76;37.72
42297;BME280;72430;47.456;19.016;2024-01-27T12:59:50;101528.66;;;9.21;39.46
42297;BME280;72430;47.456;19.016;2024-01-27T13:02:51;101521.59;;;9.05;40.09
42297;BME280;72430;47.456;19.016;2024-01-27T13:05:55;101517.78;;;9.37;39.23
42297;BME280;72430;47.456;19.016;2024-01-27T13:08:58;101527.94;;;9.04;40.39
42297;BME280;72430;47.456;19.016;2024-01-27T13:11:59;101506.19;;;8.80;41.31
42297;BME280;72430;47.456;19.016;2024-01-27T13:15:01;101505.91;;;8.84;40.07
42297;BME280;72430;47.456;19.016;2024-01-27T13:18:04;101519.13;;;8.88;40.00
42297;BME280;72430;47.456;19.016;2024-01-27T13:21:06;101504.06;;;8.85;40.48
42297;BME280;72430;47.456;19.016;2024-01-27T13:24:08;101516.59;;;8.57;40.85
42297;BME280;72430;47.456;19.016;2024-01-27T13:27:11;101498.13;;;8.51;40.68
42297;BME280;72430;47.456;19.016;2024-01-27T13:30:13;101503.31;;;8.68;40.86
42297;BME280;72430;47.456;19.016;2024-01-27T13:33:15;101507.84;;;8.68;40.65
42297;BME280;72430;47.456;19.016;2024-01-27T13:36:17;101506.03;;;8.54;40.76
42297;BME280;72430;47.456;19.016;2024-01-27T13:39:20;101526.56;;;7.95;42.05
42297;BME280;72430;47.456;19.016;2024-01-27T13:42:22;101527.69;;;8.05;42.28
42297;BME280;72430;47.456;19.016;2024-01-27T13:45:23;101518.13;;;8.01;42.52
42297;BME280;72430;47.456;19.016;2024-01-27T13:48:26;101532.81;;;8.10;42.47
42297;BME280;72430;47.456;19.016;2024-01-27T13:51:28;101538.94;;;8.12;42.50
42297;BME280;72430;47.456;19.016;2024-01-27T13:54:30;101533.94;;;8.06;42.30
42297;BME280;72430;47.456;19.016;2024-01-27T13:57:33;101556.34;;;8.05;42.56
42297;BME280;72430;47.456;19.016;2024-01-27T14:00:34;101550.84;;;8.23;42.74
42297;BME280;72430;47.456;19.016;2024-01-27T14:03:37;101543.78;;;9.36;41.86
42297;BME280;72430;47.456;19.016;2024-01-27T14:06:39;101553.03;;;10.00;39.56
42297;BME280;72430;47.456;19.016;2024-01-27T14:09:43;101523.66;;;10.36;39.98
42297;BME280;72430;47.456;19.016;2024-01-27T14:12:46;101533.47;;;10.76;38.82
42297;BME280;72430;47.456;19.016;2024-01-27T14:15:48;101541.31;;;10.79;39.14
42297;BME280;72430;47.456;19.016;2024-01-27T14:18:50;101552.28;;;10.11;39.96
42297;BME280;72430;47.456;19.016;2024-01-27T14:21:52;101544.44;;;9.67;39.67
42297;BME280;72430;47.456;19.016;2024-01-27T14:24:54;101555.56;;;9.48;40.67
42297;BME280;72430;47.456;19.016;2024-01-27T14:27:56;101558.41;;;9.32;40.50
42297;BME280;72430;47.456;19.016;2024-01-27T14:30:58;101546.78;;;8.90;40.95
42297;BME280;72430;47.456;19.016;2024-01-27T14:34:00;101557.13;;;8.52;42.12
42297;BME280;72430;47.456;19.016;2024-01-27T14:37:03;101570.03;;;8.45;42.49
42297;BME280;72430;47.456;19.016;2024-01-27T14:40:05;101548.69;;;8.58;41.51
42297;BME280;72430;47.456;19.016;2024-01-27T14:43:07;101521.97;;;8.12;42.93
42297;BME280;72430;47.456;19.016;2024-01-27T14:46:13;101533.53;;;7.67;43.17
42297;BME280;72430;47.456;19.016;2024-01-27T14:49:15;101520.06;;;7.69;44.12
42297;BME280;72430;47.456;19.016;2024-01-27T14:52:18;101525.06;;;7.75;43.56
42297;BME280;72430;47.456;19.016;2024-01-27T14:55:21;101517.59;;;7.80;43.18
42297;BME280;72430;47.456;19.016;2024-01-27T14:58:23;101526.94;;;7.42;44.93
42297;BME280;72430;47.456;19.016;2024-01-27T15:01:25;101529.34;;;7.31;44.69
42297;BME280;72430;47.456;19.016;2024-01-27T15:04:26;101531.50;;;7.24;44.93
42297;BME280;72430;47.456;19.016;2024-01-27T15:07:29;101545.00;;;7.06;45.68
42297;BME280;72430;47.456;19.016;2024-01-27T15:10:31;101546.22;;;7.17;45.98
42297;BME280;72430;47.456;19.016;2024-01-27T15:13:33;101551.31;;;7.21;45.81
42297;BME280;72430;47.456;19.016;2024-01-27T15:16:35;101542.38;;;7.21;44.96
42297;BME280;72430;47.456;19.016;2024-01-27T15:19:37;101551.13;;;7.24;45.24
42297;BME280;72430;47.456;19.016;2024-01-27T15:22:42;101558.81;;;7.15;45.20
42297;BME280;72430;47.456;19.016;2024-01-27T15:25:45;101554.31;;;7.15;45.09
42297;BME280;72430;47.456;19.016;2024-01-27T15:28:49;101550.75;;;6.82;46.21
42297;BME280;72430;47.456;19.016;2024-01-27T15:31:51;101559.25;;;7.07;45.30
42297;BME280;72430;47.456;19.016;2024-01-27T15:34:53;101553.97;;;6.89;45.52
42297;BME280;72430;47.456;19.016;2024-01-27T15:37:55;101564.50;;;6.92;46.24
42297;BME280;72430;47.456;19.016;2024-01-27T15:40:57;101562.06;;;6.88;46.40
42297;BME280;72430;47.456;19.016;2024-01-27T15:43:59;101555.69;;;6.90;46.39
42297;BME280;72430;47.456;19.016;2024-01-27T15:47:01;101539.38;;;6.95;45.73
42297;BME280;72430;47.456;19.016;2024-01-27T15:50:03;101549.13;;;6.96;46.30